sensor_id;sensor_type;location;lat;lon;timestamp;pressure;altitude;pressure_sealevel;temperature;humidity
10470;BME280;5282;47.052;15.458;2023-02-17T00:01:26;98443.06;;;0.42;100.00
10470;BME280;5282;47.052;15.458;2023-02-17T00:03:56;98445.50;;;0.29;100.00
10470;BME280;5282;47.052;15.458;2023-02-17T00:06:25;98449.84;;;0.48;100.00
10470;BME280;5282;47.052;15.458;2023-02-17T00:08:53;98451.38;;;0.52;100.00
10470;BME280;5282;47.052;15.458;2023-02-17T00:11:20;98455.13;;;0.48;100.00
10470;BME280;5282;47.052;15.458;2023-02-17T00:13:48;98454.09;;;0.51;100.00
10470;BME280;5282;47.052;15.458;2023-02-17T00:16:17;98446.00;;;0.54;100.00
10470;BME280;5282;47.052;15.458;2023-02-17T00:18:46;98440.53;;;0.23;100.00
10470;BME280;5282;47.052;15.458;2023-02-17T00:21:15;98447.41;;;0.27;100.00
10470;BME280;5282;47.052;15.458;2023-02-17T00:23:43;98456.97;;;0.30;100.00
10470;BME280;5282;47.052;15.458;2023-02-17T00:26:10;98452.88;;;0.40;100.00
10470;BME280;5282;47.052;15.458;2023-02-17T00:28:37;98455.41;;;0.59;100.00
10470;BME280;5282;47.052;15.458;2023-02-17T00:31:06;98441.91;;;0.64;100.00
10470;BME280;5282;47.052;15.458;2023-02-17T00:33:33;98452.66;;;0.45;100.00
10470;BME280;5282;47.052;15.458;2023-02-17T00:36:03;98446.06;;;0.52;100.00
10470;BME280;5282;47.052;15.458;2023-02-17T00:38:31;98440.78;;;0.52;100.00
10470;BME280;5282;47.052;15.458;2023-02-17T00:40:58;98465.16;;;0.25;100.00
10470;BME280;5282;47.052;15.458;2023-02-17T00:43:25;98457.13;;;0.27;100.00
10470;BME280;5282;47.052;15.458;2023-02-17T00:45:52;98467.16;;;0.20;100.00
10470;BME280;5282;47.052;15.458;2023-02-17T00:48:18;98472.00;;;0.29;100.00
10470;BME280;5282;47.052;15.458;2023-02-17T00:50:45;98458.38;;;0.53;100.00
10470;BME280;5282;47.052;15.458;2023-02-17T00:53:14;98450.72;;;0.31;100.00
10470;BME280;5282;47.052;15.458;2023-02-17T00:55:41;98447.84;;;0.36;100.00
10470;BME280;5282;47.052;15.458;2023-02-17T00:58:08;98449.03;;;0.30;100.00
10470;BME280;5282;47.052;15.458;2023-02-17T01:00:35;98447.09;;;0.50;100.00
10470;BME280;5282;47.052;15.458;2023-02-17T01:03:02;98451.06;;;0.58;100.00
10470;BME280;5282;47.052;15.458;2023-02-17T01:05:29;98449.63;;;0.69;100.00
10470;BME280;5282;47.052;15.458;2023-02-17T01:07:56;98440.63;;;0.71;100.00
10470;BME280;5282;47.052;15.458;2023-02-17T01:10:24;98446.41;;;0.46;100.00
10470;BME280;5282;47.052;15.458;2023-02-17T01:12:51;98443.69;;;0.64;100.00
10470;BME280;5282;47.052;15.458;2023-02-17T01:15:18;98426.28;;;0.75;100.00
10470;BME280;5282;47.052;15.458;2023-02-17T01:17:45;98433.31;;;0.76;100.00
10470;BME280;5282;47.052;15.458;2023-02-17T01:20:13;98436.13;;;0.73;100.00
10470;BME280;5282;47.052;15.458;2023-02-17T01:22:40;98433.72;;;0.69;100.00
10470;BME280;5282;47.052;15.458;2023-02-17T01:25:09;98435.41;;;0.54;100.00
10470;BME280;5282;47.052;15.458;2023-02-17T01:27:37;98435.47;;;0.52;100.00
10470;BME280;5282;47.052;15.458;2023-02-17T01:30:06;98440.09;;;0.49;100.00
10470;BME280;5282;47.052;15.458;2023-02-17T01:32:35;98437.16;;;0.71;100.00
10470;BME280;5282;47.052;15.458;2023-02-17T01:35:02;98423.38;;;0.80;100.00
10470;BME280;5282;47.052;15.458;2023-02-17T01:37:31;98422.75;;;0.75;100.00
10470;BME280;5282;47.052;15.458;2023-02-17T01:40:00;98426.38;;;0.74;100.00
10470;BME280;5282;47.052;15.458;2023-02-17T01:42:27;98424.22;;;0.81;100.00
10470;BME280;5282;47.052;15.458;2023-02-17T01:45:32;98420.72;;;0.80;100.00
10470;BME280;5282;47.052;15.458;2023-02-17T01:48:03;98413.72;;;0.95;100.00
10470;BME280;5282;47.052;15.458;2023-02-17T01:50:35;98415.25;;;0.99;100.00
10470;BME280;5282;47.052;15.458;2023-02-17T01:53:04;98411.06;;;0.95;100.00
10470;BME280;5282;47.052;15.458;2023-02-17T01:55:34;98410.47;;;0.90;100.00
10470;BME280;5282;47.052;15.458;2023-02-17T01:58:05;98402.44;;;0.75;100.00
10470;BME280;5282;47.052;15.458;2023-02-17T02:00:37;98407.72;;;0.91;100.00
10470;BME280;5282;47.052;15.458;2023-02-17T02:03:08;98400.44;;;0.95;100.00
10470;BME280;5282;47.052;15.458;2023-02-17T02:05:37;98399.69;;;1.09;100.00
10470;BME280;5282;47.052;15.458;2023-02-17T02:08:05;98398.94;;;1.07;100.00
10470;BME280;5282;47.052;15.458;2023-02-17T02:10:32;98400.72;;;1.06;100.00
10470;BME280;5282;47.052;15.458;2023-02-17T02:12:59;98401.66;;;1.05;100.00
10470;BME280;5282;47.052;15.458;2023-02-17T02:15:32;98411.06;;;1.11;100.00
10470;BME280;5282;47.052;15.458;2023-02-17T02:18:23;98396.69;;;0.99;100.00
10470;BME280;5282;47.052;15.458;2023-02-17T02:21:31;98394.13;;;0.82;100.00
10470;BME280;5282;47.052;15.458;2023-02-17T02:24:13;98389.25;;;1.06;100.00
10470;BME280;5282;47.052;15.458;2023-02-17T02:29:57;98382.25;;;1.05;100.00
10470;BME280;5282;47.052;15.458;2023-02-17T02:32:46;98380.53;;;1.04;100.00
10470;BME280;5282;47.052;15.458;2023-02-17T02:35:19;98382.66;;;0.97;100.00
10470;BME280;5282;47.052;15.458;2023-02-17T02:37:52;98385.84;;;0.72;100.00
10470;BME280;5282;47.052;15.458;2023-02-17T02:40:26;98386.88;;;0.85;100.00
10470;BME280;5282;47.052;15.458;2023-02-17T02:42:55;98382.50;;;0.84;100.00
10470;BME280;5282;47.052;15.458;2023-02-17T02:45:22;98397.53;;;0.84;100.00
10470;BME280;5282;47.052;15.458;2023-02-17T02:47:51;98383.34;;;0.69;100.00
10470;BME280;5282;47.052;15.458;2023-02-17T02:50:24;98380.97;;;0.80;100.00
10470;BME280;5282;47.052;15.458;2023-02-17T02:53:16;98376.44;;;0.66;100.00
10470;BME280;5282;47.052;15.458;2023-02-17T02:55:52;98379.41;;;0.76;100.00
10470;BME280;5282;47.052;15.458;2023-02-17T02:58:26;98378.66;;;0.74;100.00
10470;BME280;5282;47.052;15.458;2023-02-17T03:01:01;98379.50;;;0.74;100.00
10470;BME280;5282;47.052;15.458;2023-02-17T03:03:39;98382.09;;;0.92;100.00
10470;BME280;5282;47.052;15.458;2023-02-17T03:06:14;98386.09;;;0.83;100.00
10470;BME280;5282;47.052;15.458;2023-02-17T03:08:47;98380.38;;;0.91;100.00
10470;BME280;5282;47.052;15.458;2023-02-17T03:11:15;98379.84;;;0.84;100.00
10470;BME280;5282;47.052;15.458;2023-02-17T03:13:59;98376.59;;;0.63;100.00
10470;BME280;5282;47.052;15.458;2023-02-17T03:16:27;98384.63;;;0.61;100.00
10470;BME280;5282;47.052;15.458;2023-02-17T03:18:55;98382.00;;;0.77;100.00
10470;BME280;5282;47.052;15.458;2023-02-17T03:21:25;98379.59;;;0.89;100.00
10470;BME280;5282;47.052;15.458;2023-02-17T03:23:54;98370.88;;;0.87;100.00
10470;BME280;5282;47.052;15.458;2023-02-17T03:26:22;98372.66;;;0.86;100.00
10470;BME280;5282;47.052;15.458;2023-02-17T03:28:48;98375.13;;;0.89;100.00
10470;BME280;5282;47.052;15.458;2023-02-17T03:31:15;98376.84;;;0.90;100.00
10470;BME280;5282;47.052;15.458;2023-02-17T03:33:45;98374.56;;;0.84;100.00
10470;BME280;5282;47.052;15.458;2023-02-17T03:36:13;98379.25;;;0.79;100.00
10470;BME280;5282;47.052;15.458;2023-02-17T03:38:43;98373.34;;;0.90;100.00
10470;BME280;5282;47.052;15.458;2023-02-17T03:41:10;98378.56;;;0.91;100.00
10470;BME280;5282;47.052;15.458;2023-02-17T03:43:37;98379.84;;;0.84;100.00
10470;BME280;5282;47.052;15.458;2023-02-17T03:46:04;98382.31;;;0.87;100.00
10470;BME280;5282;47.052;15.458;2023-02-17T03:48:33;98381.63;;;1.00;100.00
10470;BME280;5282;47.052;15.458;2023-02-17T03:51:09;98382.94;;;0.92;100.00
10470;BME280;5282;47.052;15.458;2023-02-17T03:53:37;98381.22;;;0.91;100.00
10470;BME280;5282;47.052;15.458;2023-02-17T03:56:04;98385.16;;;0.84;100.00
10470;BME280;5282;47.052;15.458;2023-02-17T03:58:31;98387.81;;;0.68;100.00
10470;BME280;5282;47.052;15.458;2023-02-17T04:00:59;98378.47;;;0.93;100.00
10470;BME280;5282;47.052;15.458;2023-02-17T04:03:29;98381.81;;;0.97;100.00
10470;BME280;5282;47.052;15.458;2023-02-17T04:06:00;98380.63;;;1.02;100.00
10470;BME280;5282;47.052;15.458;2023-02-17T04:08:31;98376.31;;;1.00;100.00
10470;BME280;5282;47.052;15.458;2023-02-17T04:11:04;98390.22;;;0.73;100.00
10470;BME280;5282;47.052;15.458;2023-02-17T04:13:31;98382.50;;;0.84;100.00
10470;BME280;5282;47.052;15.458;2023-02-17T04:15:59;98387.13;;;0.97;100.00
10470;BME280;5282;47.052;15.458;2023-02-17T04:18:29;98387.19;;;0.95;100.00
10470;BME280;5282;47.052;15.458;2023-02-17T04:20:57;98369.16;;;1.02;100.00
10470;BME280;5282;47.052;15.458;2023-02-17T04:23:24;98380.28;;;0.92;100.00
10470;BME280;5282;47.052;15.458;2023-02-17T04:25:51;98363.78;;;1.03;100.00
10470;BME280;5282;47.052;15.458;2023-02-17T04:28:20;98369.84;;;0.89;100.00
10470;BME280;5282;47.052;15.458;2023-02-17T04:30:48;98371.91;;;1.00;100.00
10470;BME280;5282;47.052;15.458;2023-02-17T04:33:16;98370.69;;;1.06;100.00
10470;BME280;5282;47.052;15.458;2023-02-17T04:35:46;98381.91;;;0.95;100.00
10470;BME280;5282;47.052;15.458;2023-02-17T04:38:14;98370.34;;;0.96;100.00
10470;BME280;5282;47.052;15.458;2023-02-17T04:40:41;98372.06;;;0.81;100.00
10470;BME280;5282;47.052;15.458;2023-02-17T04:43:09;98367.69;;;0.96;100.00
10470;BME280;5282;47.052;15.458;2023-02-17T04:45:37;98377.72;;;0.91;100.00
10470;BME280;5282;47.052;15.458;2023-02-17T04:48:05;98370.88;;;0.87;100.00
10470;BME280;5282;47.052;15.458;2023-02-17T04:50:32;98375.66;;;0.80;100.00
10470;BME280;5282;47.052;15.458;2023-02-17T04:52:59;98374.53;;;1.00;100.00
10470;BME280;5282;47.052;15.458;2023-02-17T04:55:26;98383.69;;;1.11;100.00
10470;BME280;5282;47.052;15.458;2023-02-17T04:57:54;98375.56;;;1.14;100.00
10470;BME280;5282;47.052;15.458;2023-02-17T05:00:21;98383.69;;;1.11;100.00
10470;BME280;5282;47.052;15.458;2023-02-17T05:02:50;98370.97;;;1.01;100.00
10470;BME280;5282;47.052;15.458;2023-02-17T05:05:17;98372.97;;;1.12;100.00
10470;BME280;5282;47.052;15.458;2023-02-17T05:07:45;98367.09;;;1.07;100.00
10470;BME280;5282;47.052;15.458;2023-02-17T05:10:13;98359.91;;;1.09;100.00
10470;BME280;5282;47.052;15.458;2023-02-17T05:12:41;98362.38;;;1.12;100.00
10470;BME280;5282;47.052;15.458;2023-02-17T05:15:09;98361.03;;;1.05;100.00
10470;BME280;5282;47.052;15.458;2023-02-17T05:17:37;98359.56;;;0.99;100.00
10470;BME280;5282;47.052;15.458;2023-02-17T05:20:07;98366.41;;;0.71;100.00
10470;BME280;5282;47.052;15.458;2023-02-17T05:22:34;98354.53;;;0.63;100.00
10470;BME280;5282;47.052;15.458;2023-02-17T05:25:01;98346.91;;;0.40;100.00
10470;BME280;5282;47.052;15.458;2023-02-17T05:27:28;98357.69;;;0.53;100.00
10470;BME280;5282;47.052;15.458;2023-02-17T05:29:55;98357.63;;;0.71;100.00
10470;BME280;5282;47.052;15.458;2023-02-17T05:32:22;98357.47;;;0.74;100.00
10470;BME280;5282;47.052;15.458;2023-02-17T05:34:49;98365.06;;;0.80;100.00
10470;BME280;5282;47.052;15.458;2023-02-17T05:37:18;98358.28;;;0.74;100.00
10470;BME280;5282;47.052;15.458;2023-02-17T05:39:45;98362.63;;;0.27;100.00
10470;BME280;5282;47.052;15.458;2023-02-17T05:42:12;98371.88;;;0.52;100.00
10470;BME280;5282;47.052;15.458;2023-02-17T05:44:39;98372.72;;;0.37;100.00
10470;BME280;5282;47.052;15.458;2023-02-17T05:47:06;98368.09;;;0.40;100.00
10470;BME280;5282;47.052;15.458;2023-02-17T05:49:33;98363.34;;;0.47;100.00
10470;BME280;5282;47.052;15.458;2023-02-17T05:52:00;98364.63;;;0.40;100.00
10470;BME280;5282;47.052;15.458;2023-02-17T05:54:31;98369.41;;;0.49;100.00
10470;BME280;5282;47.052;15.458;2023-02-17T05:56:58;98370.31;;;0.32;100.00
10470;BME280;5282;47.052;15.458;2023-02-17T05:59:27;98364.16;;;0.32;100.00
10470;BME280;5282;47.052;15.458;2023-02-17T06:01:54;98362.28;;;0.34;100.00
10470;BME280;5282;47.052;15.458;2023-02-17T06:04:21;98357.38;;;0.26;100.00
10470;BME280;5282;47.052;15.458;2023-02-17T06:06:49;98359.72;;;0.32;100.00
10470;BME280;5282;47.052;15.458;2023-02-17T06:09:17;98373.13;;;0.29;100.00
10470;BME280;5282;47.052;15.458;2023-02-17T06:11:45;98374.06;;;0.28;100.00
10470;BME280;5282;47.052;15.458;2023-02-17T06:14:12;98374.28;;;0.07;100.00
10470;BME280;5282;47.052;15.458;2023-02-17T06:16:39;98374.41;;;0.22;100.00
10470;BME280;5282;47.052;15.458;2023-02-17T06:19:06;98374.13;;;0.10;100.00
10470;BME280;5282;47.052;15.458;2023-02-17T06:21:33;98370.28;;;0.16;100.00
10470;BME280;5282;47.052;15.458;2023-02-17T06:24:00;98375.41;;;0.19;100.00
10470;BME280;5282;47.052;15.458;2023-02-17T06:26:27;98365.66;;;0.04;100.00
10470;BME280;5282;47.052;15.458;2023-02-17T06:28:58;98371.09;;;0.01;100.00
10470;BME280;5282;47.052;15.458;2023-02-17T06:31:25;98369.50;;;0.14;100.00
10470;BME280;5282;47.052;15.458;2023-02-17T06:33:52;98369.34;;;0.17;100.00
10470;BME280;5282;47.052;15.458;2023-02-17T06:36:19;98367.31;;;0.22;100.00
10470;BME280;5282;47.052;15.458;2023-02-17T06:38:46;98370.81;;;0.23;100.00
10470;BME280;5282;47.052;15.458;2023-02-17T06:41:13;98383.41;;;0.02;100.00
10470;BME280;5282;47.052;15.458;2023-02-17T06:43:40;98382.31;;;0.06;100.00
10470;BME280;5282;47.052;15.458;2023-02-17T06:46:08;98384.81;;;0.25;100.00
10470;BME280;5282;47.052;15.458;2023-02-17T06:48:35;98378.34;;;0.30;100.00
10470;BME280;5282;47.052;15.458;2023-02-17T06:51:03;98374.31;;;0.23;100.00
10470;BME280;5282;47.052;15.458;2023-02-17T06:53:30;98374.66;;;0.17;100.00
10470;BME280;5282;47.052;15.458;2023-02-17T06:55:58;98376.63;;;0.29;100.00
10470;BME280;5282;47.052;15.458;2023-02-17T06:58:24;98380.16;;;0.46;100.00
10470;BME280;5282;47.052;15.458;2023-02-17T07:00:52;98374.19;;;0.58;100.00
10470;BME280;5282;47.052;15.458;2023-02-17T07:03:20;98375.66;;;0.64;100.00
10470;BME280;5282;47.052;15.458;2023-02-17T07:05:48;98374.47;;;0.70;100.00
10470;BME280;5282;47.052;15.458;2023-02-17T07:08:15;98366.09;;;0.77;100.00
10470;BME280;5282;47.052;15.458;2023-02-17T07:10:42;98375.31;;;0.86;100.00
10470;BME280;5282;47.052;15.458;2023-02-17T07:13:08;98378.66;;;0.90;100.00
10470;BME280;5282;47.052;15.458;2023-02-17T07:15:35;98378.97;;;1.00;100.00
10470;BME280;5282;47.052;15.458;2023-02-17T07:18:02;98376.84;;;1.06;100.00
10470;BME280;5282;47.052;15.458;2023-02-17T07:20:31;98369.22;;;1.16;100.00
10470;BME280;5282;47.052;15.458;2023-02-17T07:22:58;98374.94;;;1.25;100.00
10470;BME280;5282;47.052;15.458;2023-02-17T07:25:25;98374.66;;;1.29;100.00
10470;BME280;5282;47.052;15.458;2023-02-17T07:27:52;98376.88;;;1.37;100.00
10470;BME280;5282;47.052;15.458;2023-02-17T07:30:19;98378.91;;;1.48;100.00
10470;BME280;5282;47.052;15.458;2023-02-17T07:32:49;98369.75;;;1.53;100.00
10470;BME280;5282;47.052;15.458;2023-02-17T07:35:16;98377.88;;;1.50;100.00
10470;BME280;5282;47.052;15.458;2023-02-17T07:37:46;98387.19;;;1.58;100.00
10470;BME280;5282;47.052;15.458;2023-02-17T07:40:13;98379.84;;;1.77;100.00
10470;BME280;5282;47.052;15.458;2023-02-17T07:42:40;98364.88;;;1.91;100.00
10470;BME280;5282;47.052;15.458;2023-02-17T07:45:07;98363.75;;;1.95;100.00
10470;BME280;5282;47.052;15.458;2023-02-17T07:47:34;98368.31;;;2.07;100.00
10470;BME280;5282;47.052;15.458;2023-02-17T07:50:01;98365.19;;;2.15;100.00
10470;BME280;5282;47.052;15.458;2023-02-17T07:52:28;98362.91;;;2.23;100.00
10470;BME280;5282;47.052;15.458;2023-02-17T07:54:56;98359.78;;;2.31;100.00
10470;BME280;5282;47.052;15.458;2023-02-17T07:57:23;98361.09;;;2.38;100.00
10470;BME280;5282;47.052;15.458;2023-02-17T07:59:50;98357.78;;;2.49;100.00
10470;BME280;5282;47.052;15.458;2023-02-17T08:02:17;98353.69;;;2.58;100.00
10470;BME280;5282;47.052;15.458;2023-02-17T08:04:45;98352.94;;;2.70;100.00
10470;BME280;5282;47.052;15.458;2023-02-17T08:07:12;98349.75;;;2.78;100.00
10470;BME280;5282;47.052;15.458;2023-02-17T08:09:39;98352.56;;;2.89;100.00
10470;BME280;5282;47.052;15.458;2023-02-17T08:12:25;98345.50;;;3.03;100.00
10470;BME280;5282;47.052;15.458;2023-02-17T08:15:10;98350.13;;;3.14;100.00
10470;BME280;5282;47.052;15.458;2023-02-17T08:17:37;98349.91;;;3.17;100.00
10470;BME280;5282;47.052;15.458;2023-02-17T08:20:06;98356.69;;;3.35;100.00
10470;BME280;5282;47.052;15.458;2023-02-17T08:22:33;98356.28;;;3.42;100.00
10470;BME280;5282;47.052;15.458;2023-02-17T08:25:00;98358.88;;;3.56;100.00
10470;BME280;5282;47.052;15.458;2023-02-17T08:27:28;98357.22;;;3.68;100.00
10470;BME280;5282;47.052;15.458;2023-02-17T08:29:56;98347.84;;;3.75;100.00
10470;BME280;5282;47.052;15.458;2023-02-17T08:32:22;98350.06;;;3.81;100.00
10470;BME280;5282;47.052;15.458;2023-02-17T08:34:49;98336.88;;;4.06;100.00
10470;BME280;5282;47.052;15.458;2023-02-17T08:37:16;98334.75;;;4.24;100.00
10470;BME280;5282;47.052;15.458;2023-02-17T08:39:43;98326.72;;;4.37;100.00
10470;BME280;5282;47.052;15.458;2023-02-17T08:42:10;98329.28;;;4.51;100.00
10470;BME280;5282;47.052;15.458;2023-02-17T08:44:38;98331.16;;;4.62;100.00
10470;BME280;5282;47.052;15.458;2023-02-17T08:47:05;98330.06;;;4.77;100.00
10470;BME280;5282;47.052;15.458;2023-02-17T08:49:33;98324.03;;;4.87;100.00
10470;BME280;5282;47.052;15.458;2023-02-17T08:52:01;98325.75;;;5.12;100.00
10470;BME280;5282;47.052;15.458;2023-02-17T08:54:29;98324.75;;;5.26;100.00
10470;BME280;5282;47.052;15.458;2023-02-17T08:56:56;98333.94;;;5.46;100.00
10470;BME280;5282;47.052;15.458;2023-02-17T08:59:23;98332.00;;;5.60;96.75
10470;BME280;5282;47.052;15.458;2023-02-17T09:01:51;98329.69;;;5.91;95.84
10470;BME280;5282;47.052;15.458;2023-02-17T09:04:18;98332.66;;;6.10;92.52
10470;BME280;5282;47.052;15.458;2023-02-17T09:06:50;98320.41;;;6.19;90.63
10470;BME280;5282;47.052;15.458;2023-02-17T09:09:20;98312.75;;;6.48;89.83
10470;BME280;5282;47.052;15.458;2023-02-17T09:11:47;98312.56;;;6.73;85.53
10470;BME280;5282;47.052;15.458;2023-02-17T09:14:14;98308.75;;;6.98;83.77
10470;BME280;5282;47.052;15.458;2023-02-17T09:16:41;98308.09;;;7.17;78.45
10470;BME280;5282;47.052;15.458;2023-02-17T09:19:10;98307.31;;;7.26;80.38
10470;BME280;5282;47.052;15.458;2023-02-17T09:21:37;98300.09;;;7.38;73.42
10470;BME280;5282;47.052;15.458;2023-02-17T09:24:04;98290.16;;;7.50;72.03
10470;BME280;5282;47.052;15.458;2023-02-17T09:26:31;98284.03;;;7.81;72.29
10470;BME280;5282;47.052;15.458;2023-02-17T09:29:02;98284.34;;;8.09;73.03
10470;BME280;5282;47.052;15.458;2023-02-17T09:31:33;98282.56;;;8.50;70.60
10470;BME280;5282;47.052;15.458;2023-02-17T09:34:00;98286.84;;;8.62;65.26
10470;BME280;5282;47.052;15.458;2023-02-17T09:36:30;98279.56;;;9.04;64.74
10470;BME280;5282;47.052;15.458;2023-02-17T09:38:58;98283.41;;;9.40;60.48
10470;BME280;5282;47.052;15.458;2023-02-17T09:41:30;98276.16;;;9.61;60.32
10470;BME280;5282;47.052;15.458;2023-02-17T09:44:00;98282.84;;;9.56;57.47
10470;BME280;5282;47.052;15.458;2023-02-17T09:46:30;98286.50;;;9.65;59.06
10470;BME280;5282;47.052;15.458;2023-02-17T09:49:00;98275.69;;;9.95;57.26
10470;BME280;5282;47.052;15.458;2023-02-17T09:51:33;98273.75;;;9.87;57.49
10470;BME280;5282;47.052;15.458;2023-02-17T09:54:05;98275.69;;;9.95;57.34
10470;BME280;5282;47.052;15.458;2023-02-17T09:56:39;98273.00;;;9.95;56.81
10470;BME280;5282;47.052;15.458;2023-02-17T09:59:10;98274.81;;;10.04;57.57
10470;BME280;5282;47.052;15.458;2023-02-17T10:01:41;98270.19;;;10.24;56.15
10470;BME280;5282;47.052;15.458;2023-02-17T10:04:12;98272.31;;;10.40;55.16
10470;BME280;5282;47.052;15.458;2023-02-17T10:06:43;98273.31;;;10.39;52.57
10470;BME280;5282;47.052;15.458;2023-02-17T10:09:14;98266.88;;;10.78;51.61
10470;BME280;5282;47.052;15.458;2023-02-17T10:11:48;98260.06;;;11.20;51.56
10470;BME280;5282;47.052;15.458;2023-02-17T10:14:21;98263.25;;;11.78;49.25
10470;BME280;5282;47.052;15.458;2023-02-17T10:16:52;98260.00;;;11.74;46.83
10470;BME280;5282;47.052;15.458;2023-02-17T10:19:26;98267.06;;;11.93;47.95
10470;BME280;5282;47.052;15.458;2023-02-17T10:22:03;98262.44;;;12.30;46.85
10470;BME280;5282;47.052;15.458;2023-02-17T10:24:31;98254.97;;;12.58;45.39
10470;BME280;5282;47.052;15.458;2023-02-17T10:27:19;98252.28;;;12.67;42.60
10470;BME280;5282;47.052;15.458;2023-02-17T10:29:59;98252.00;;;12.43;42.40
10470;BME280;5282;47.052;15.458;2023-02-17T10:32:31;98245.81;;;12.51;42.83
10470;BME280;5282;47.052;15.458;2023-02-17T10:35:14;98245.00;;;12.59;43.21
10470;BME280;5282;47.052;15.458;2023-02-17T10:37:46;98236.47;;;12.96;40.77
10470;BME280;5282;47.052;15.458;2023-02-17T10:40:18;98230.16;;;13.55;41.69
10470;BME280;5282;47.052;15.458;2023-02-17T10:42:46;98221.47;;;14.01;38.39
10470;BME280;5282;47.052;15.458;2023-02-17T10:45:23;98222.69;;;14.39;36.47
10470;BME280;5282;47.052;15.458;2023-02-17T10:47:57;98220.06;;;14.70;35.79
10470;BME280;5282;47.052;15.458;2023-02-17T10:50:27;98216.41;;;14.46;33.37
10470;BME280;5282;47.052;15.458;2023-02-17T10:52:55;98218.91;;;14.00;34.83
10470;BME280;5282;47.052;15.458;2023-02-17T10:55:30;98212.19;;;13.87;36.04
10470;BME280;5282;47.052;15.458;2023-02-17T10:58:03;98215.09;;;13.53;36.33
10470;BME280;5282;47.052;15.458;2023-02-17T11:00:31;98215.25;;;13.68;36.87
10470;BME280;5282;47.052;15.458;2023-02-17T11:02:58;98210.03;;;13.58;37.42
10470;BME280;5282;47.052;15.458;2023-02-17T11:05:28;98197.69;;;13.47;38.62
10470;BME280;5282;47.052;15.458;2023-02-17T11:07:59;98189.03;;;13.35;38.99
10470;BME280;5282;47.052;15.458;2023-02-17T11:10:29;98186.84;;;13.39;40.00
10470;BME280;5282;47.052;15.458;2023-02-17T11:12:57;98180.28;;;13.33;39.28
10470;BME280;5282;47.052;15.458;2023-02-17T11:15:28;98182.97;;;13.08;38.50
10470;BME280;5282;47.052;15.458;2023-02-17T11:17:59;98193.41;;;13.03;38.53
10470;BME280;5282;47.052;15.458;2023-02-17T11:20:34;98203.41;;;13.03;39.08
10470;BME280;5282;47.052;15.458;2023-02-17T11:23:06;98194.94;;;12.98;38.54
10470;BME280;5282;47.052;15.458;2023-02-17T11:25:35;98195.94;;;12.88;39.13
10470;BME280;5282;47.052;15.458;2023-02-17T11:28:10;98184.84;;;13.16;38.39
10470;BME280;5282;47.052;15.458;2023-02-17T11:30:39;98175.69;;;13.01;38.98
10470;BME280;5282;47.052;15.458;2023-02-17T11:33:11;98176.16;;;12.79;39.40
10470;BME280;5282;47.052;15.458;2023-02-17T11:35:49;98167.56;;;13.09;39.98
10470;BME280;5282;47.052;15.458;2023-02-17T11:38:20;98167.91;;;13.31;39.53
10470;BME280;5282;47.052;15.458;2023-02-17T11:40:52;98170.78;;;13.62;39.22
10470;BME280;5282;47.052;15.458;2023-02-17T11:43:19;98160.09;;;13.85;38.26
10470;BME280;5282;47.052;15.458;2023-02-17T11:45:53;98148.25;;;13.78;39.44
10470;BME280;5282;47.052;15.458;2023-02-17T11:48:43;98148.78;;;13.73;38.72
10470;BME280;5282;47.052;15.458;2023-02-17T11:51:19;98150.41;;;13.99;37.41
10470;BME280;5282;47.052;15.458;2023-02-17T11:53:58;98153.84;;;13.77;36.45
10470;BME280;5282;47.052;15.458;2023-02-17T11:56:32;98154.13;;;13.98;37.62
10470;BME280;5282;47.052;15.458;2023-02-17T11:59:15;98153.84;;;14.25;37.21
10470;BME280;5282;47.052;15.458;2023-02-17T12:01:59;98149.06;;;14.43;37.78
10470;BME280;5282;47.052;15.458;2023-02-17T12:04:30;98140.66;;;14.22;36.08
10470;BME280;5282;47.052;15.458;2023-02-17T12:07:20;98134.75;;;14.26;35.67
10470;BME280;5282;47.052;15.458;2023-02-17T12:09:59;98135.56;;;14.27;36.25
10470;BME280;5282;47.052;15.458;2023-02-17T12:12:35;98127.31;;;13.72;35.37
10470;BME280;5282;47.052;15.458;2023-02-17T12:15:18;98128.38;;;13.46;36.22
10470;BME280;5282;47.052;15.458;2023-02-17T12:17:57;98131.78;;;13.48;36.24
10470;BME280;5282;47.052;15.458;2023-02-17T12:20:40;98130.88;;;13.64;37.03
10470;BME280;5282;47.052;15.458;2023-02-17T12:23:20;98126.28;;;13.81;37.15
10470;BME280;5282;47.052;15.458;2023-02-17T12:25:56;98121.00;;;13.88;37.15
10470;BME280;5282;47.052;15.458;2023-02-17T12:28:39;98118.47;;;13.95;37.00
10470;BME280;5282;47.052;15.458;2023-02-17T12:31:14;98117.59;;;13.94;37.02
10470;BME280;5282;47.052;15.458;2023-02-17T12:33:53;98109.06;;;13.74;37.50
10470;BME280;5282;47.052;15.458;2023-02-17T12:36:26;98095.22;;;13.52;37.25
10470;BME280;5282;47.052;15.458;2023-02-17T12:38:59;98099.28;;;13.56;37.34
10470;BME280;5282;47.052;15.458;2023-02-17T12:41:33;98096.88;;;13.70;39.12
10470;BME280;5282;47.052;15.458;2023-02-17T12:44:04;98102.63;;;13.67;38.15
10470;BME280;5282;47.052;15.458;2023-02-17T12:46:37;98097.03;;;13.77;38.02
10470;BME280;5282;47.052;15.458;2023-02-17T12:49:10;98088.06;;;13.76;37.94
10470;BME280;5282;47.052;15.458;2023-02-17T12:51:40;98086.03;;;13.78;37.47
10470;BME280;5282;47.052;15.458;2023-02-17T12:54:14;98082.00;;;13.74;37.43
10470;BME280;5282;47.052;15.458;2023-02-17T12:57:06;98083.50;;;13.77;38.22
10470;BME280;5282;47.052;15.458;2023-02-17T12:59:38;98082.66;;;13.76;38.60
10470;BME280;5282;47.052;15.458;2023-02-17T13:02:10;98074.91;;;13.73;38.60
10470;BME280;5282;47.052;15.458;2023-02-17T13:04:37;98075.28;;;13.53;38.75
10470;BME280;5282;47.052;15.458;2023-02-17T13:10:05;98068.81;;;13.71;39.38
10470;BME280;5282;47.052;15.458;2023-02-17T13:12:37;98065.75;;;13.74;39.42
10470;BME280;5282;47.052;15.458;2023-02-17T13:15:24;98063.81;;;13.51;39.18
10470;BME280;5282;47.052;15.458;2023-02-17T13:17:54;98060.75;;;13.46;39.65
10470;BME280;5282;47.052;15.458;2023-02-17T13:20:28;98066.63;;;13.58;39.91
10470;BME280;5282;47.052;15.458;2023-02-17T13:23:05;98065.09;;;13.64;39.54